createdAt,value
2018-06-05T00:02:01.005Z,1.63
2018-06-05T00:04:28.405Z,1.67
2018-06-05T00:06:55.801Z,1.67
2018-06-05T00:09:23.246Z,1.50
2018-06-05T00:11:50.670Z,1.43
2018-06-05T00:14:18.047Z,1.40
2018-06-05T00:16:45.474Z,1.47
2018-06-05T00:19:12.857Z,1.63
2018-06-05T00:21:40.220Z,1.30
2018-06-05T00:24:07.629Z,1.40
2018-06-05T00:26:34.980Z,1.63
2018-06-05T00:29:02.406Z,1.60
2018-06-05T00:31:29.804Z,1.80
2018-06-05T00:33:57.217Z,1.50
2018-06-05T00:36:24.617Z,1.50
2018-06-05T00:38:52.010Z,1.93
2018-06-05T00:41:19.424Z,1.50
2018-06-05T00:43:46.818Z,1.30
2018-06-05T00:46:14.223Z,1.57
2018-06-05T00:48:42.540Z,1.40
2018-06-05T00:51:21.606Z,1.30
2018-06-05T00:53:48.984Z,1.53
2018-06-05T00:56:16.361Z,1.37
2018-06-05T00:58:43.777Z,1.37
2018-06-05T01:01:11.160Z,1.80
2018-06-05T01:03:38.601Z,1.67
2018-06-05T01:06:06.005Z,1.70
2018-06-05T01:08:33.397Z,1.50
2018-06-05T01:11:00.822Z,1.30
2018-06-05T01:13:28.232Z,1.30
2018-06-05T01:15:55.705Z,1.60
2018-06-05T01:18:23.082Z,1.70
2018-06-05T01:20:50.457Z,1.53
2018-06-05T01:23:17.888Z,1.40
2018-06-05T01:25:45.297Z,1.50
2018-06-05T01:28:12.737Z,2.00
2018-06-05T01:30:40.124Z,1.60
2018-06-05T01:33:07.516Z,1.43
2018-06-05T01:35:34.914Z,1.90
2018-06-05T01:38:02.341Z,1.30
2018-06-05T01:40:29.741Z,1.43
2018-06-05T01:42:57.128Z,1.37
2018-06-05T01:45:24.548Z,1.40
2018-06-05T01:47:51.982Z,1.43
2018-06-05T01:50:19.373Z,1.53
2018-06-05T01:52:46.790Z,1.37
2018-06-05T01:55:14.149Z,1.50
2018-06-05T01:57:41.522Z,1.30
2018-06-05T02:00:08.961Z,1.30
2018-06-05T02:02:36.338Z,1.50
2018-06-05T02:05:03.801Z,1.27
2018-06-05T02:07:31.198Z,1.50
2018-06-05T02:09:58.646Z,1.40
2018-06-05T02:12:26.059Z,1.40
2018-06-05T02:14:53.436Z,1.60
2018-06-05T02:17:20.841Z,1.37
2018-06-05T02:19:48.241Z,1.40
2018-06-05T02:22:15.653Z,1.50
2018-06-05T02:24:43.047Z,1.50
2018-06-05T02:27:10.475Z,1.20
2018-06-05T02:29:37.877Z,1.10
2018-06-05T02:32:05.277Z,1.20
2018-06-05T02:34:32.670Z,1.10
2018-06-05T02:37:00.061Z,1.20
2018-06-05T02:39:27.498Z,1.23
2018-06-05T02:41:54.873Z,1.13
2018-06-05T02:44:22.253Z,1.33
2018-06-05T02:46:49.677Z,1.23
2018-06-05T02:49:17.079Z,1.20
2018-06-05T02:51:44.511Z,1.10
2018-06-05T02:54:11.905Z,1.00
2018-06-05T02:56:39.292Z,1.10
2018-06-05T02:59:06.681Z,1.20
2018-06-05T03:01:34.053Z,0.90
2018-06-05T03:04:01.506Z,1.07
2018-06-05T03:06:28.893Z,0.90
2018-06-05T03:08:56.271Z,0.80
2018-06-05T03:11:23.693Z,0.70
2018-06-05T03:13:51.111Z,0.80
2018-06-05T03:16:18.558Z,0.70
2018-06-05T03:18:45.961Z,0.77
2018-06-05T03:21:13.370Z,0.80
2018-06-05T03:23:40.764Z,0.67
2018-06-05T03:26:08.144Z,0.60
2018-06-05T03:28:35.583Z,0.70
2018-06-05T03:31:02.976Z,0.70
2018-06-05T03:33:30.339Z,0.70
2018-06-05T03:35:57.717Z,0.60
2018-06-05T03:38:25.113Z,0.80
2018-06-05T03:40:52.591Z,0.60
2018-06-05T03:43:19.953Z,0.60
2018-06-05T03:45:47.349Z,0.60
2018-06-05T03:48:14.762Z,0.57
2018-06-05T03:50:42.158Z,0.70
2018-06-05T03:53:09.545Z,0.63
2018-06-05T03:55:36.945Z,0.70
2018-06-05T03:58:04.394Z,0.60
2018-06-05T04:00:31.799Z,0.40
2018-06-05T04:02:59.897Z,0.60
2018-06-05T04:05:27.296Z,0.63
2018-06-05T04:07:54.682Z,0.60
2018-06-05T04:10:22.072Z,0.63
2018-06-05T04:12:49.470Z,0.70
2018-06-05T04:15:16.857Z,0.60
2018-06-05T04:17:44.237Z,0.67
2018-06-05T04:20:11.626Z,0.63
2018-06-05T04:22:39.029Z,0.40
2018-06-05T04:25:06.208Z,0.50
2018-06-05T04:27:33.648Z,0.50
2018-06-05T04:30:01.037Z,0.70
2018-06-05T04:32:28.477Z,0.70
2018-06-05T04:34:55.860Z,0.70
2018-06-05T04:37:23.252Z,0.50
2018-06-05T04:39:50.685Z,0.50
2018-06-05T04:42:18.128Z,0.47
2018-06-05T04:44:45.501Z,0.60
2018-06-05T04:47:12.889Z,0.70
2018-06-05T04:49:40.280Z,0.30
2018-06-05T04:52:07.709Z,0.50
2018-06-05T04:54:35.125Z,0.77
2018-06-05T04:57:02.533Z,0.53
2018-06-05T04:59:29.920Z,0.60
2018-06-05T05:01:57.322Z,0.60
2018-06-05T05:04:24.752Z,0.70
2018-06-05T05:06:52.145Z,0.80
2018-06-05T05:09:19.807Z,0.50
2018-06-05T05:11:47.405Z,0.60
2018-06-05T05:14:14.824Z,0.50
2018-06-05T05:16:42.245Z,0.50
2018-06-05T05:19:09.670Z,0.40
2018-06-05T05:21:37.084Z,0.50
2018-06-05T05:24:04.650Z,0.60
2018-06-05T05:26:32.045Z,0.50
2018-06-05T05:28:59.413Z,0.60
2018-06-05T05:31:26.829Z,0.50
2018-06-05T05:33:54.212Z,0.67
2018-06-05T05:36:21.631Z,0.50
2018-06-05T05:38:49.021Z,0.57
2018-06-05T05:41:16.700Z,0.60
2018-06-05T05:43:44.092Z,0.83
2018-06-05T05:46:11.656Z,0.70
2018-06-05T05:48:39.041Z,0.70
2018-06-05T05:51:06.457Z,0.40
2018-06-05T05:53:33.861Z,0.67
2018-06-05T05:56:01.237Z,0.40
2018-06-05T05:58:28.631Z,0.80
2018-06-05T06:00:56.026Z,0.50
2018-06-05T06:03:23.683Z,0.60
2018-06-05T06:05:51.093Z,0.80
2018-06-05T06:08:18.496Z,0.70
2018-06-05T06:10:45.894Z,0.53
2018-06-05T06:13:13.312Z,0.67
2018-06-05T06:15:40.689Z,0.37
2018-06-05T06:18:08.079Z,0.60
2018-06-05T06:20:35.474Z,0.53
2018-06-05T06:23:02.905Z,0.60
2018-06-05T06:25:30.325Z,0.43
2018-06-05T06:27:57.721Z,0.60
2018-06-05T06:30:25.109Z,0.47
2018-06-05T06:32:52.514Z,0.50
2018-06-05T06:35:19.897Z,0.63
2018-06-05T06:37:47.273Z,0.53
2018-06-05T06:40:14.697Z,0.50
2018-06-05T06:42:42.100Z,0.60
2018-06-05T06:45:09.549Z,0.63
2018-06-05T06:47:36.967Z,0.60
2018-06-05T06:50:04.395Z,0.70
2018-06-05T06:52:31.777Z,0.60
2018-06-05T06:54:59.153Z,0.50
2018-06-05T06:57:26.541Z,0.70
2018-06-05T06:59:53.950Z,0.80
2018-06-05T07:02:21.336Z,0.50
2018-06-05T07:04:48.740Z,0.63
2018-06-05T07:07:16.139Z,0.20
2018-06-05T07:09:43.517Z,0.50
2018-06-05T07:12:10.952Z,0.50
2018-06-05T07:14:38.373Z,0.60
2018-06-05T07:17:05.745Z,0.70
2018-06-05T07:19:33.165Z,0.43
2018-06-05T07:22:00.563Z,0.50
2018-06-05T07:24:27.997Z,0.60
2018-06-05T07:26:55.390Z,0.50
2018-06-05T07:29:22.805Z,0.40
2018-06-05T07:31:50.225Z,0.47
2018-06-05T07:34:17.592Z,0.67
2018-06-05T07:36:45.023Z,0.73
2018-06-05T07:39:12.438Z,0.60
2018-06-05T07:41:39.851Z,0.50
2018-06-05T07:44:07.248Z,0.70
2018-06-05T07:46:34.676Z,0.63
2018-06-05T07:49:02.074Z,0.50
2018-06-05T07:51:29.474Z,0.50
2018-06-05T07:53:56.969Z,0.40
2018-06-05T07:56:24.418Z,0.57
2018-06-05T07:58:51.807Z,0.50
2018-06-05T08:01:19.214Z,0.50
2018-06-05T08:03:46.612Z,0.60
2018-06-05T08:06:14.023Z,0.50
2018-06-05T08:08:41.638Z,0.77
2018-06-05T08:11:09.051Z,0.40
2018-06-05T08:13:36.450Z,0.50
2018-06-05T08:16:03.880Z,0.70
2018-06-05T08:18:31.298Z,0.70
2018-06-05T08:20:58.691Z,0.53
2018-06-05T08:23:26.058Z,0.70
2018-06-05T08:25:53.518Z,0.60
2018-06-05T08:28:20.913Z,0.80
2018-06-05T08:30:48.341Z,0.63
2018-06-05T08:33:15.743Z,0.50
2018-06-05T08:35:43.138Z,0.53
2018-06-05T08:38:10.541Z,0.70
2018-06-05T08:40:37.947Z,0.47
2018-06-05T08:43:05.363Z,0.60
2018-06-05T08:45:32.774Z,0.67
2018-06-05T08:48:00.206Z,0.80
2018-06-05T08:50:27.580Z,0.50
2018-06-05T08:52:54.975Z,0.60
2018-06-05T08:55:22.380Z,0.50
2018-06-05T08:57:49.791Z,0.53
2018-06-05T09:00:17.186Z,0.40
2018-06-05T09:02:44.586Z,0.50
2018-06-05T09:05:11.987Z,0.50
2018-06-05T09:07:39.449Z,0.60
2018-06-05T09:10:06.868Z,0.60
2018-06-05T09:12:34.266Z,0.60
2018-06-05T09:15:01.666Z,0.60
2018-06-05T09:17:29.061Z,0.80
2018-06-05T09:19:56.461Z,0.70
2018-06-05T09:22:23.865Z,0.90
2018-06-05T09:24:51.236Z,0.60
2018-06-05T09:27:18.645Z,0.50
2018-06-05T09:29:46.033Z,0.57
2018-06-05T09:32:13.465Z,0.60
2018-06-05T09:34:40.877Z,0.90
2018-06-05T09:37:08.278Z,0.60
2018-06-05T09:39:35.650Z,0.60
2018-06-05T09:42:03.053Z,0.60
2018-06-05T09:44:30.440Z,0.60
2018-06-05T09:46:57.949Z,0.50
2018-06-05T09:49:25.282Z,0.77
2018-06-05T09:51:52.706Z,0.70
2018-06-05T09:54:20.102Z,0.60
2018-06-05T09:56:47.513Z,0.40
2018-06-05T09:59:14.913Z,2.13
2018-06-05T10:01:42.349Z,0.70
2018-06-05T10:04:09.746Z,0.53
2018-06-05T10:06:37.138Z,0.60
2018-06-05T10:09:06.075Z,0.70
2018-06-05T10:11:33.479Z,0.50
2018-06-05T10:14:00.867Z,0.70
2018-06-05T10:16:28.241Z,0.70
2018-06-05T10:18:55.665Z,0.63
2018-06-05T10:21:23.085Z,0.70
2018-06-05T10:23:50.469Z,0.80
2018-06-05T10:26:17.893Z,0.60
2018-06-05T10:28:45.278Z,0.90
2018-06-05T10:31:12.673Z,0.70
2018-06-05T10:33:40.058Z,0.67
2018-06-05T10:36:07.473Z,0.57
2018-06-05T10:38:34.886Z,0.70
2018-06-05T10:41:02.433Z,0.60
2018-06-05T10:43:29.834Z,0.60
2018-06-05T10:45:57.217Z,0.77
2018-06-05T10:48:24.633Z,0.60
2018-06-05T10:50:52.042Z,0.73
2018-06-05T10:53:19.457Z,0.47
2018-06-05T10:55:46.840Z,0.40
2018-06-05T10:58:14.245Z,0.70
2018-06-05T11:00:41.625Z,0.67
2018-06-05T11:03:09.028Z,0.50
2018-06-05T11:05:36.438Z,0.70
2018-06-05T11:08:03.912Z,0.67
2018-06-05T11:10:31.312Z,0.70
2018-06-05T11:12:58.705Z,0.70
2018-06-05T11:15:26.118Z,0.60
2018-06-05T11:17:53.496Z,0.60
2018-06-05T11:20:20.905Z,0.70
2018-06-05T11:22:48.306Z,0.60
2018-06-05T11:25:15.726Z,0.63
2018-06-05T11:27:43.111Z,0.60
2018-06-05T11:30:10.522Z,0.70
2018-06-05T11:32:37.920Z,0.80
2018-06-05T11:35:05.681Z,0.53
2018-06-05T11:37:33.087Z,1.47
2018-06-05T11:40:00.460Z,0.70
2018-06-05T11:42:27.860Z,0.63
2018-06-05T11:44:55.273Z,0.80
2018-06-05T11:47:22.688Z,0.50
2018-06-05T11:49:50.082Z,0.53
2018-06-05T11:52:17.499Z,0.70
2018-06-05T11:54:44.898Z,0.87
2018-06-05T11:57:12.325Z,0.60
2018-06-05T11:59:39.750Z,0.73
2018-06-05T12:02:07.210Z,0.70
2018-06-05T12:04:34.609Z,0.60
2018-06-05T12:07:02.058Z,0.60
2018-06-05T12:09:29.455Z,0.50
2018-06-05T12:11:56.868Z,0.60
2018-06-05T12:14:24.269Z,0.60
2018-06-05T12:16:51.662Z,0.70
2018-06-05T12:19:19.149Z,0.80
2018-06-05T12:21:46.531Z,0.50
2018-06-05T12:24:13.960Z,0.40
2018-06-05T12:26:41.347Z,0.50
2018-06-05T12:29:08.757Z,1.30
2018-06-05T12:31:36.210Z,0.57
2018-06-05T12:34:03.654Z,0.60
2018-06-05T12:36:31.080Z,0.60
2018-06-05T12:38:58.465Z,0.60
2018-06-05T12:41:25.851Z,0.50
2018-06-05T12:43:53.249Z,0.50
2018-06-05T12:46:20.633Z,0.50
2018-06-05T12:48:48.018Z,0.67
2018-06-05T12:51:15.409Z,0.60
2018-06-05T12:53:42.819Z,0.50
2018-06-05T12:56:10.230Z,0.50
2018-06-05T12:58:37.595Z,0.70
2018-06-05T13:01:04.981Z,0.70
2018-06-05T13:03:32.361Z,0.60
2018-06-05T13:06:00.121Z,0.60
2018-06-05T13:08:27.537Z,0.50
2018-06-05T13:10:54.935Z,0.80
2018-06-05T13:13:22.337Z,0.60
2018-06-05T13:15:49.991Z,0.50
2018-06-05T13:18:17.388Z,0.50
2018-06-05T13:20:44.797Z,0.50
2018-06-05T13:23:12.238Z,0.50
2018-06-05T13:25:39.607Z,0.60
2018-06-05T13:28:06.982Z,0.70
2018-06-05T13:30:34.421Z,0.53
2018-06-05T13:33:01.817Z,0.50
2018-06-05T13:35:29.226Z,0.80
2018-06-05T13:37:56.618Z,0.77
2018-06-05T13:40:24.049Z,0.70
2018-06-05T13:42:51.416Z,0.60
2018-06-05T13:45:18.854Z,0.50
2018-06-05T13:47:46.227Z,0.50
2018-06-05T13:50:13.637Z,0.60
2018-06-05T13:52:41.074Z,0.60
2018-06-05T13:55:08.515Z,0.50
2018-06-05T13:57:35.897Z,0.30
2018-06-05T14:00:03.381Z,0.37
2018-06-05T14:02:30.753Z,0.47
2018-06-05T14:04:58.135Z,0.50
2018-06-05T14:07:25.557Z,0.50
2018-06-05T14:09:52.940Z,0.40
2018-06-05T14:12:20.332Z,0.50
2018-06-05T14:14:47.713Z,0.50
2018-06-05T14:17:15.133Z,0.60
2018-06-05T14:19:42.521Z,0.30
2018-06-05T14:22:09.933Z,0.40
2018-06-05T14:24:37.301Z,0.60
2018-06-05T14:27:04.813Z,3.07
2018-06-05T14:29:32.194Z,0.70
2018-06-05T14:31:59.598Z,0.50
2018-06-05T14:34:27.032Z,0.30
2018-06-05T14:36:54.442Z,0.23
2018-06-05T14:39:21.817Z,0.50
2018-06-05T14:41:49.240Z,0.20
2018-06-05T14:44:16.630Z,0.50
2018-06-05T14:46:44.041Z,0.40
2018-06-05T14:49:11.420Z,0.40
2018-06-05T14:51:38.800Z,0.53
2018-06-05T14:54:06.224Z,0.47
2018-06-05T14:56:33.602Z,0.40
2018-06-05T14:59:01.002Z,0.40
2018-06-05T15:01:28.386Z,0.50
2018-06-05T15:03:55.770Z,0.40
2018-06-05T15:06:23.468Z,0.60
2018-06-05T15:08:50.906Z,0.50
2018-06-05T15:11:18.312Z,0.40
2018-06-05T15:13:45.712Z,0.57
2018-06-05T15:16:13.123Z,0.47
2018-06-05T15:18:40.519Z,0.50
2018-06-05T15:21:07.902Z,0.50
2018-06-05T15:23:35.309Z,0.30
2018-06-05T15:26:02.692Z,0.60
2018-06-05T15:28:30.077Z,0.50
2018-06-05T15:30:57.466Z,0.50
2018-06-05T15:33:24.856Z,0.80
2018-06-05T15:35:52.250Z,0.50
2018-06-05T15:38:19.640Z,0.50
2018-06-05T15:40:47.062Z,0.50
2018-06-05T15:43:14.482Z,0.43
2018-06-05T15:45:41.842Z,0.57
2018-06-05T15:48:09.229Z,0.50
2018-06-05T15:50:36.613Z,0.43
2018-06-05T15:53:03.992Z,0.53
2018-06-05T15:55:31.398Z,0.70
2018-06-05T15:57:58.793Z,0.60
2018-06-05T16:00:26.205Z,0.70
2018-06-05T16:02:53.587Z,0.60
2018-06-05T16:05:21.006Z,0.50
2018-06-05T16:07:48.422Z,0.57
2018-06-05T16:10:15.822Z,0.60
2018-06-05T16:12:43.226Z,0.50
2018-06-05T16:15:10.639Z,0.60
2018-06-05T16:17:38.053Z,0.50
2018-06-05T16:20:05.492Z,0.60
2018-06-05T16:22:32.893Z,0.50
2018-06-05T16:25:00.293Z,0.40
2018-06-05T16:27:27.722Z,0.60
2018-06-05T16:29:55.113Z,0.50
2018-06-05T16:32:22.521Z,0.80
2018-06-05T16:34:49.939Z,0.60
2018-06-05T16:37:17.341Z,0.50
2018-06-05T16:39:44.726Z,0.60
2018-06-05T16:42:12.138Z,0.80
2018-06-05T16:44:39.512Z,0.60
2018-06-05T16:47:06.937Z,0.70
2018-06-05T16:49:34.312Z,0.40
2018-06-05T16:52:01.696Z,0.50
2018-06-05T16:54:29.080Z,0.50
2018-06-05T16:56:56.488Z,0.60
2018-06-05T16:59:23.878Z,0.50
2018-06-05T17:01:51.284Z,0.40
2018-06-05T17:04:18.695Z,0.53
2018-06-05T17:06:46.333Z,0.60
2018-06-05T17:09:13.722Z,0.70
2018-06-05T17:11:41.123Z,0.50
2018-06-05T17:14:08.523Z,0.40
2018-06-05T17:16:35.926Z,0.50
2018-06-05T17:19:03.310Z,0.50
2018-06-05T17:21:30.672Z,0.60
2018-06-05T17:23:58.075Z,0.50
2018-06-05T17:26:25.462Z,0.43
2018-06-05T17:28:52.850Z,0.57
2018-06-05T17:31:20.249Z,0.60
2018-06-05T17:33:47.640Z,0.50
2018-06-05T17:36:15.029Z,0.57
2018-06-05T17:38:42.420Z,0.53
2018-06-05T17:41:09.803Z,0.50
2018-06-05T17:43:37.194Z,0.70
2018-06-05T17:46:04.647Z,0.50
2018-06-05T17:48:32.066Z,0.60
2018-06-05T17:50:59.466Z,0.83
2018-06-05T17:53:26.859Z,0.57
2018-06-05T17:55:54.255Z,0.57
2018-06-05T17:58:21.622Z,0.53
2018-06-05T18:00:49.058Z,0.50
2018-06-05T18:03:16.470Z,0.60
2018-06-05T18:05:43.872Z,0.60
2018-06-05T18:08:11.261Z,0.33
2018-06-05T18:10:38.662Z,0.50
2018-06-05T18:13:06.033Z,0.50
2018-06-05T18:15:33.425Z,0.30
2018-06-05T18:18:00.821Z,0.60
2018-06-05T18:20:28.241Z,0.40
2018-06-05T18:22:55.642Z,0.50
2018-06-05T18:25:23.037Z,0.40
2018-06-05T18:27:50.445Z,0.40
2018-06-05T18:30:17.839Z,0.40
2018-06-05T18:32:45.266Z,0.47
2018-06-05T18:35:12.650Z,0.33
2018-06-05T18:37:40.040Z,0.50
2018-06-05T18:40:07.420Z,0.60
2018-06-05T18:42:34.805Z,0.40
2018-06-05T18:45:02.197Z,0.50
2018-06-05T18:47:29.564Z,0.60
2018-06-05T18:49:57.000Z,0.47
2018-06-05T18:52:24.390Z,0.40
2018-06-05T18:54:51.765Z,0.43
2018-06-05T18:57:19.149Z,0.33
2018-06-05T18:59:46.549Z,0.57
2018-06-05T19:02:13.960Z,0.47
2018-06-05T19:04:41.418Z,0.40
2018-06-05T19:07:08.822Z,0.50
2018-06-05T19:09:36.314Z,0.40
2018-06-05T19:12:03.701Z,0.30
2018-06-05T19:14:31.104Z,0.47
2018-06-05T19:16:58.516Z,0.50
2018-06-05T19:19:25.909Z,0.37
2018-06-05T19:21:53.293Z,0.30
2018-06-05T19:24:20.727Z,0.60
2018-06-05T19:26:48.090Z,0.40
2018-06-05T19:29:15.643Z,0.57
2018-06-05T19:31:42.970Z,0.60
2018-06-05T19:34:10.375Z,0.40
2018-06-05T19:36:37.806Z,0.60
2018-06-05T19:39:06.808Z,0.50
2018-06-05T19:41:34.255Z,0.50
2018-06-05T19:44:01.633Z,0.40
2018-06-05T19:46:29.093Z,0.30
2018-06-05T19:48:57.310Z,0.50
2018-06-05T19:51:24.696Z,0.50
2018-06-05T19:53:52.110Z,0.30
2018-06-05T19:56:19.481Z,0.53
2018-06-05T19:58:46.888Z,0.40
2018-06-05T20:01:14.259Z,0.50
2018-06-05T20:03:41.676Z,0.30
2018-06-05T20:06:09.092Z,0.40
2018-06-05T20:08:36.484Z,0.40
2018-06-05T20:11:03.925Z,0.60
2018-06-05T20:13:31.319Z,0.40
2018-06-05T20:15:58.718Z,0.60
2018-06-05T20:18:26.107Z,0.43
2018-06-05T20:20:53.503Z,0.50
2018-06-05T20:23:20.897Z,0.40
2018-06-05T21:13:25.034Z,0.50
2018-06-05T21:26:17.799Z,0.60
2018-06-05T21:28:53.832Z,0.50
2018-06-05T21:31:28.654Z,0.43
2018-06-05T21:34:08.622Z,0.60
2018-06-05T21:36:43.355Z,0.63
2018-06-05T21:39:18.194Z,0.60
2018-06-05T21:41:53.384Z,0.60
2018-06-05T21:44:29.695Z,0.40
2018-06-05T21:48:12.202Z,0.60
2018-06-05T21:50:48.465Z,0.40
2018-06-05T21:53:23.514Z,0.47
2018-06-05T21:55:58.431Z,0.57
2018-06-05T21:58:33.465Z,0.70
2018-06-05T22:01:08.704Z,0.50
2018-06-05T22:03:57.501Z,0.80
2018-06-05T22:06:34.076Z,0.63
2018-06-05T22:09:09.925Z,0.60
2018-06-05T22:11:46.752Z,0.57
2018-06-05T22:14:23.090Z,0.70
2018-06-05T22:16:58.251Z,0.80
2018-06-05T22:19:40.192Z,0.83
2018-06-05T22:22:17.033Z,0.53
2018-06-05T22:25:02.336Z,0.60
2018-06-05T22:27:38.393Z,0.83
2018-06-05T22:30:14.770Z,0.70
2018-06-05T22:33:00.333Z,0.93
2018-06-05T22:35:36.722Z,0.80
2018-06-05T22:38:26.845Z,0.93
2018-06-05T22:43:46.623Z,0.73
2018-06-05T22:46:23.440Z,0.80
2018-06-05T22:48:59.447Z,1.00
2018-06-05T22:51:37.653Z,0.90
2018-06-05T22:54:15.350Z,1.30
2018-06-05T22:59:45.733Z,1.10
2018-06-05T23:02:42.049Z,0.90
2018-06-05T23:05:24.964Z,0.80
2018-06-05T23:08:06.855Z,1.00
2018-06-05T23:14:00.268Z,1.13
2018-06-05T23:55:21.732Z,1.33
2018-06-05T23:58:18.871Z,1.50
